sensor_id;sensor_type;location;lat;lon;timestamp;P1;durP1;ratioP1;P2;durP2;ratioP2
24147;SDS011;12309;51.450;-2.624;2023-12-20T15:51:25;8.07;;;1.40;;
24147;SDS011;12309;51.450;-2.624;2023-12-20T15:53:50;9.57;;;1.70;;
24147;SDS011;12309;51.450;-2.624;2023-12-20T15:56:16;6.70;;;1.50;;
24147;SDS011;12309;51.450;-2.624;2023-12-20T15:58:45;9.10;;;2.30;;
24147;SDS011;12309;51.450;-2.624;2023-12-20T16:01:17;9.77;;;2.17;;
24147;SDS011;12309;51.450;-2.624;2023-12-20T16:03:42;13.43;;;2.60;;
24147;SDS011;12309;51.450;-2.624;2023-12-20T16:06:08;20.37;;;2.77;;
24147;SDS011;12309;51.450;-2.624;2023-12-20T16:08:35;12.30;;;2.57;;
24147;SDS011;12309;51.450;-2.624;2023-12-20T16:11:01;17.77;;;2.77;;
24147;SDS011;12309;51.450;-2.624;2023-12-20T16:13:26;15.30;;;2.93;;
24147;SDS011;12309;51.450;-2.624;2023-12-20T16:15:53;15.93;;;2.97;;
24147;SDS011;12309;51.450;-2.624;2023-12-20T16:18:20;10.70;;;3.00;;
24147;SDS011;12309;51.450;-2.624;2023-12-20T16:20:55;15.07;;;3.53;;
24147;SDS011;12309;51.450;-2.624;2023-12-20T16:23:22;15.90;;;2.93;;
24147;SDS011;12309;51.450;-2.624;2023-12-20T16:25:49;15.33;;;3.07;;
24147;SDS011;12309;51.450;-2.624;2023-12-20T16:28:18;15.73;;;2.70;;
24147;SDS011;12309;51.450;-2.624;2023-12-20T16:30:44;18.47;;;3.30;;
24147;SDS011;12309;51.450;-2.624;2023-12-20T16:33:09;17.53;;;3.70;;
24147;SDS011;12309;51.450;-2.624;2023-12-20T16:35:35;17.93;;;3.40;;
24147;SDS011;12309;51.450;-2.624;2023-12-20T16:38:01;25.03;;;4.20;;
24147;SDS011;12309;51.450;-2.624;2023-12-20T16:40:27;19.27;;;3.40;;
24147;SDS011;12309;51.450;-2.624;2023-12-20T16:42:53;20.77;;;3.50;;
24147;SDS011;12309;51.450;-2.624;2023-12-20T16:45:21;25.37;;;3.83;;
24147;SDS011;12309;51.450;-2.624;2023-12-20T16:47:47;17.57;;;3.40;;
24147;SDS011;12309;51.450;-2.624;2023-12-20T16:50:13;20.57;;;4.10;;
24147;SDS011;12309;51.450;-2.624;2023-12-20T16:52:39;22.60;;;4.43;;
24147;SDS011;12309;51.450;-2.624;2023-12-20T16:55:08;34.60;;;7.80;;
24147;SDS011;12309;51.450;-2.624;2023-12-20T16:57:35;29.63;;;8.47;;
24147;SDS011;12309;51.450;-2.624;2023-12-20T17:00:00;89.60;;;29.40;;
24147;SDS011;12309;51.450;-2.624;2023-12-20T17:02:27;22.03;;;5.80;;
24147;SDS011;12309;51.450;-2.624;2023-12-20T17:04:52;41.17;;;14.27;;
24147;SDS011;12309;51.450;-2.624;2023-12-20T17:07:18;21.73;;;4.37;;
24147;SDS011;12309;51.450;-2.624;2023-12-20T17:09:44;27.37;;;9.07;;
24147;SDS011;12309;51.450;-2.624;2023-12-20T17:12:11;42.43;;;16.07;;
24147;SDS011;12309;51.450;-2.624;2023-12-20T17:14:37;18.97;;;4.50;;
24147;SDS011;12309;51.450;-2.624;2023-12-20T17:17:02;21.50;;;4.17;;
24147;SDS011;12309;51.450;-2.624;2023-12-20T17:19:29;27.57;;;5.50;;
24147;SDS011;12309;51.450;-2.624;2023-12-20T17:21:56;22.70;;;4.17;;
24147;SDS011;12309;51.450;-2.624;2023-12-20T17:24:22;23.83;;;4.70;;
24147;SDS011;12309;51.450;-2.624;2023-12-20T17:26:48;21.90;;;4.40;;
24147;SDS011;12309;51.450;-2.624;2023-12-20T17:29:14;26.23;;;5.93;;
24147;SDS011;12309;51.450;-2.624;2023-12-20T17:31:39;33.93;;;8.57;;
24147;SDS011;12309;51.450;-2.624;2023-12-20T17:34:07;31.43;;;6.80;;
24147;SDS011;12309;51.450;-2.624;2023-12-20T17:36:36;26.37;;;4.60;;
24147;SDS011;12309;51.450;-2.624;2023-12-20T17:39:05;26.60;;;4.63;;
24147;SDS011;12309;51.450;-2.624;2023-12-20T17:41:31;27.87;;;4.47;;
24147;SDS011;12309;51.450;-2.624;2023-12-20T17:43:58;26.17;;;4.20;;
24147;SDS011;12309;51.450;-2.624;2023-12-20T17:46:23;23.27;;;5.97;;
24147;SDS011;12309;51.450;-2.624;2023-12-20T17:48:49;34.27;;;5.50;;
24147;SDS011;12309;51.450;-2.624;2023-12-20T17:51:15;25.87;;;5.67;;
24147;SDS011;12309;51.450;-2.624;2023-12-20T17:53:40;22.57;;;4.53;;
24147;SDS011;12309;51.450;-2.624;2023-12-20T17:56:06;18.53;;;4.10;;
24147;SDS011;12309;51.450;-2.624;2023-12-20T17:58:32;20.20;;;4.63;;
24147;SDS011;12309;51.450;-2.624;2023-12-20T18:00:58;29.80;;;4.90;;
24147;SDS011;12309;51.450;-2.624;2023-12-20T18:03:24;27.00;;;5.23;;
24147;SDS011;12309;51.450;-2.624;2023-12-20T18:05:50;20.53;;;4.20;;
24147;SDS011;12309;51.450;-2.624;2023-12-20T18:08:16;23.43;;;4.63;;
24147;SDS011;12309;51.450;-2.624;2023-12-20T18:10:41;32.23;;;4.90;;
24147;SDS011;12309;51.450;-2.624;2023-12-20T18:13:07;24.13;;;4.43;;
24147;SDS011;12309;51.450;-2.624;2023-12-20T18:15:33;22.53;;;4.50;;
24147;SDS011;12309;51.450;-2.624;2023-12-20T18:17:58;21.47;;;4.97;;
24147;SDS011;12309;51.450;-2.624;2023-12-20T18:20:24;26.47;;;5.73;;
24147;SDS011;12309;51.450;-2.624;2023-12-20T18:22:50;18.63;;;4.13;;
24147;SDS011;12309;51.450;-2.624;2023-12-20T18:25:16;23.77;;;6.73;;
24147;SDS011;12309;51.450;-2.624;2023-12-20T18:27:43;24.47;;;5.43;;
24147;SDS011;12309;51.450;-2.624;2023-12-20T18:30:09;24.17;;;4.73;;
24147;SDS011;12309;51.450;-2.624;2023-12-20T18:32:35;28.90;;;6.97;;
24147;SDS011;12309;51.450;-2.624;2023-12-20T18:35:01;23.03;;;4.93;;
24147;SDS011;12309;51.450;-2.624;2023-12-20T18:37:28;19.00;;;4.23;;
24147;SDS011;12309;51.450;-2.624;2023-12-20T18:39:58;17.93;;;3.63;;
24147;SDS011;12309;51.450;-2.624;2023-12-20T18:42:24;22.53;;;5.07;;
24147;SDS011;12309;51.450;-2.624;2023-12-20T18:44:49;22.77;;;3.93;;
24147;SDS011;12309;51.450;-2.624;2023-12-20T18:47:15;19.03;;;3.23;;
24147;SDS011;12309;51.450;-2.624;2023-12-20T18:49:41;22.00;;;4.17;;
24147;SDS011;12309;51.450;-2.624;2023-12-20T18:52:06;24.33;;;3.60;;
24147;SDS011;12309;51.450;-2.624;2023-12-20T18:54:32;21.13;;;3.77;;
24147;SDS011;12309;51.450;-2.624;2023-12-20T18:56:58;18.03;;;3.43;;
24147;SDS011;12309;51.450;-2.624;2023-12-20T18:59:24;17.73;;;3.67;;
24147;SDS011;12309;51.450;-2.624;2023-12-20T19:01:51;16.67;;;3.67;;
24147;SDS011;12309;51.450;-2.624;2023-12-20T19:04:16;21.27;;;3.63;;
24147;SDS011;12309;51.450;-2.624;2023-12-20T19:06:42;23.23;;;3.27;;
24147;SDS011;12309;51.450;-2.624;2023-12-20T19:09:08;20.40;;;3.30;;
24147;SDS011;12309;51.450;-2.624;2023-12-20T19:11:34;16.63;;;2.93;;
24147;SDS011;12309;51.450;-2.624;2023-12-20T19:14:00;15.23;;;3.23;;
24147;SDS011;12309;51.450;-2.624;2023-12-20T19:16:27;16.77;;;3.27;;
24147;SDS011;12309;51.450;-2.624;2023-12-20T19:18:53;18.40;;;5.63;;
24147;SDS011;12309;51.450;-2.624;2023-12-20T19:21:19;14.50;;;2.90;;
24147;SDS011;12309;51.450;-2.624;2023-12-20T19:23:46;14.60;;;2.90;;
24147;SDS011;12309;51.450;-2.624;2023-12-20T19:26:11;13.43;;;2.93;;
24147;SDS011;12309;51.450;-2.624;2023-12-20T19:28:37;13.57;;;2.30;;
24147;SDS011;12309;51.450;-2.624;2023-12-20T19:31:08;7.13;;;1.87;;
24147;SDS011;12309;51.450;-2.624;2023-12-20T19:33:36;13.60;;;2.50;;
24147;SDS011;12309;51.450;-2.624;2023-12-20T19:36:03;10.13;;;2.80;;
24147;SDS011;12309;51.450;-2.624;2023-12-20T19:38:30;9.93;;;2.27;;
24147;SDS011;12309;51.450;-2.624;2023-12-20T19:40:56;12.07;;;2.33;;
24147;SDS011;12309;51.450;-2.624;2023-12-20T19:43:22;7.30;;;2.40;;
24147;SDS011;12309;51.450;-2.624;2023-12-20T19:45:48;13.40;;;2.60;;
24147;SDS011;12309;51.450;-2.624;2023-12-20T19:48:14;9.67;;;2.77;;
24147;SDS011;12309;51.450;-2.624;2023-12-20T19:50:39;15.23;;;3.23;;
24147;SDS011;12309;51.450;-2.624;2023-12-20T19:53:05;11.33;;;2.10;;
24147;SDS011;12309;51.450;-2.624;2023-12-20T19:55:31;12.40;;;2.53;;
24147;SDS011;12309;51.450;-2.624;2023-12-20T19:57:59;9.80;;;2.07;;
24147;SDS011;12309;51.450;-2.624;2023-12-20T20:00:25;15.23;;;2.77;;
24147;SDS011;12309;51.450;-2.624;2023-12-20T20:02:51;9.80;;;2.40;;
24147;SDS011;12309;51.450;-2.624;2023-12-20T20:05:17;12.27;;;2.57;;
24147;SDS011;12309;51.450;-2.624;2023-12-20T20:07:42;8.87;;;1.97;;
24147;SDS011;12309;51.450;-2.624;2023-12-20T20:10:08;10.10;;;1.93;;
24147;SDS011;12309;51.450;-2.624;2023-12-20T20:12:34;11.73;;;1.97;;
24147;SDS011;12309;51.450;-2.624;2023-12-20T20:15:00;7.47;;;1.80;;
24147;SDS011;12309;51.450;-2.624;2023-12-20T20:17:26;12.40;;;2.30;;
24147;SDS011;12309;51.450;-2.624;2023-12-20T20:19:52;9.60;;;2.33;;
24147;SDS011;12309;51.450;-2.624;2023-12-20T20:22:17;11.63;;;2.30;;
24147;SDS011;12309;51.450;-2.624;2023-12-20T20:24:44;10.37;;;1.93;;
24147;SDS011;12309;51.450;-2.624;2023-12-20T20:27:10;9.77;;;1.63;;
24147;SDS011;12309;51.450;-2.624;2023-12-20T20:29:37;9.57;;;1.77;;
24147;SDS011;12309;51.450;-2.624;2023-12-20T20:32:03;10.90;;;2.30;;
24147;SDS011;12309;51.450;-2.624;2023-12-20T20:34:29;9.63;;;2.10;;
24147;SDS011;12309;51.450;-2.624;2023-12-20T20:36:55;11.10;;;2.13;;
24147;SDS011;12309;51.450;-2.624;2023-12-20T20:39:21;10.20;;;1.90;;
24147;SDS011;12309;51.450;-2.624;2023-12-20T20:41:47;8.50;;;2.03;;
24147;SDS011;12309;51.450;-2.624;2023-12-20T20:44:13;11.40;;;2.27;;
24147;SDS011;12309;51.450;-2.624;2023-12-20T20:46:39;8.60;;;1.90;;
24147;SDS011;12309;51.450;-2.624;2023-12-20T20:49:05;12.73;;;2.70;;
24147;SDS011;12309;51.450;-2.624;2023-12-20T20:51:31;9.47;;;2.23;;
24147;SDS011;12309;51.450;-2.624;2023-12-20T20:53:56;11.87;;;2.20;;
24147;SDS011;12309;51.450;-2.624;2023-12-20T20:56:22;14.53;;;3.17;;
24147;SDS011;12309;51.450;-2.624;2023-12-20T20:58:48;10.67;;;2.23;;
24147;SDS011;12309;51.450;-2.624;2023-12-20T21:01:17;11.53;;;2.53;;
24147;SDS011;12309;51.450;-2.624;2023-12-20T21:03:43;13.67;;;3.03;;
24147;SDS011;12309;51.450;-2.624;2023-12-20T21:06:09;12.37;;;2.17;;
24147;SDS011;12309;51.450;-2.624;2023-12-20T21:08:35;12.80;;;2.40;;
24147;SDS011;12309;51.450;-2.624;2023-12-20T21:11:01;7.90;;;1.83;;
24147;SDS011;12309;51.450;-2.624;2023-12-20T21:13:27;8.67;;;1.73;;
24147;SDS011;12309;51.450;-2.624;2023-12-20T21:15:54;8.73;;;1.53;;
24147;SDS011;12309;51.450;-2.624;2023-12-20T21:18:20;6.87;;;1.57;;
24147;SDS011;12309;51.450;-2.624;2023-12-20T21:20:46;10.17;;;1.67;;
24147;SDS011;12309;51.450;-2.624;2023-12-20T21:23:13;5.47;;;1.40;;
24147;SDS011;12309;51.450;-2.624;2023-12-20T21:25:42;8.30;;;1.80;;
24147;SDS011;12309;51.450;-2.624;2023-12-20T21:28:10;8.00;;;1.50;;
24147;SDS011;12309;51.450;-2.624;2023-12-20T21:30:36;8.23;;;1.77;;
24147;SDS011;12309;51.450;-2.624;2023-12-20T21:33:02;10.17;;;1.73;;
24147;SDS011;12309;51.450;-2.624;2023-12-20T21:35:29;6.77;;;1.43;;
24147;SDS011;12309;51.450;-2.624;2023-12-20T21:37:55;8.50;;;1.90;;
24147;SDS011;12309;51.450;-2.624;2023-12-20T21:40:20;4.83;;;1.23;;
24147;SDS011;12309;51.450;-2.624;2023-12-20T21:42:46;7.13;;;1.63;;
24147;SDS011;12309;51.450;-2.624;2023-12-20T21:45:12;8.17;;;1.73;;
24147;SDS011;12309;51.450;-2.624;2023-12-20T21:47:37;7.43;;;1.90;;
24147;SDS011;12309;51.450;-2.624;2023-12-20T21:50:03;7.83;;;1.70;;
24147;SDS011;12309;51.450;-2.624;2023-12-20T21:52:29;12.20;;;1.83;;
24147;SDS011;12309;51.450;-2.624;2023-12-20T21:54:55;11.03;;;1.83;;
24147;SDS011;12309;51.450;-2.624;2023-12-20T21:57:21;7.03;;;1.60;;
24147;SDS011;12309;51.450;-2.624;2023-12-20T21:59:46;6.60;;;1.30;;
24147;SDS011;12309;51.450;-2.624;2023-12-20T22:02:12;9.27;;;1.47;;
24147;SDS011;12309;51.450;-2.624;2023-12-20T22:04:38;7.00;;;1.67;;
24147;SDS011;12309;51.450;-2.624;2023-12-20T22:07:04;6.07;;;1.53;;
24147;SDS011;12309;51.450;-2.624;2023-12-20T22:09:29;7.67;;;1.60;;
24147;SDS011;12309;51.450;-2.624;2023-12-20T22:11:55;4.90;;;1.03;;
24147;SDS011;12309;51.450;-2.624;2023-12-20T22:14:21;6.67;;;1.13;;
24147;SDS011;12309;51.450;-2.624;2023-12-20T22:16:47;5.77;;;1.27;;
24147;SDS011;12309;51.450;-2.624;2023-12-20T22:19:12;7.03;;;1.80;;
24147;SDS011;12309;51.450;-2.624;2023-12-20T22:21:38;5.13;;;1.23;;
24147;SDS011;12309;51.450;-2.624;2023-12-20T22:24:04;6.03;;;1.30;;
24147;SDS011;12309;51.450;-2.624;2023-12-20T22:26:30;4.43;;;1.07;;
24147;SDS011;12309;51.450;-2.624;2023-12-20T22:28:56;3.77;;;1.40;;
24147;SDS011;12309;51.450;-2.624;2023-12-20T22:31:21;6.93;;;1.00;;
24147;SDS011;12309;51.450;-2.624;2023-12-20T22:33:47;5.60;;;1.30;;
24147;SDS011;12309;51.450;-2.624;2023-12-20T22:36:13;2.40;;;0.93;;
24147;SDS011;12309;51.450;-2.624;2023-12-20T22:38:39;5.87;;;1.20;;
24147;SDS011;12309;51.450;-2.624;2023-12-20T22:41:05;2.87;;;0.90;;
24147;SDS011;12309;51.450;-2.624;2023-12-20T22:43:34;3.40;;;1.03;;
24147;SDS011;12309;51.450;-2.624;2023-12-20T22:46:01;4.93;;;0.90;;
